Time;durP1;ratioP1;P1;durP2;ratioP2;P2;SDS_P1;SDS_P2;PMS_P1;PMS_P2;Temp;Humidity;BMP_temperature;BMP_pressure;BME280_temperature;BME280_humidity;BME280_pressure;Samples;Min_cycle;Max_cycle;Signal;HPM_P1;HPM_P2
2022/03/29 00:01:56;;;;;;;3.70;2.80;;;24.30;30.30;;;;;;5031421;28;20876;-62
2022/03/29 00:04:22;;;;;;;3.67;2.92;;;24.30;30.30;;;;;;5031480;28;20400;-63
2022/03/29 00:06:48;;;;;;;3.22;2.60;;;24.30;30.40;;;;;;5031339;28;20907;-62
2022/03/29 00:09:14;;;;;;;3.58;2.65;;;24.30;30.30;;;;;;5031106;28;20422;-63
2022/03/29 00:11:40;;;;;;;3.40;2.85;;;24.30;30.30;;;;;;5031566;28;20390;-62
2022/03/29 00:14:08;;;;;;;3.08;2.75;;;24.30;30.30;;;;;;5031314;28;20485;-66
2022/03/29 00:16:34;;;;;;;4.00;2.83;;;24.30;30.30;;;;;;5031486;28;20427;-63
2022/03/29 00:19:00;;;;;;;3.50;2.80;;;24.30;30.30;;;;;;5031169;28;20465;-62
2022/03/29 00:21:26;;;;;;;3.13;2.72;;;24.20;30.40;;;;;;5031129;28;20785;-62
2022/03/29 00:23:52;;;;;;;3.75;2.92;;;24.20;30.50;;;;;;5031339;28;20863;-62
2022/03/29 00:26:17;;;;;;;3.22;2.80;;;24.20;30.50;;;;;;5031410;28;20393;-66
2022/03/29 00:28:43;;;;;;;4.22;2.70;;;24.20;30.50;;;;;;5030099;28;20407;-62
2022/03/29 00:31:11;;;;;;;3.95;3.00;;;24.20;30.40;;;;;;5030837;28;20942;-62
2022/03/29 00:33:37;;;;;;;3.05;2.55;;;24.20;30.50;;;;;;5031263;28;20449;-62
2022/03/29 00:36:03;;;;;;;3.10;2.70;;;24.20;30.40;;;;;;5031280;28;20402;-64
2022/03/29 00:38:29;;;;;;;3.67;3.00;;;24.20;30.40;;;;;;5031308;28;20925;-63
2022/03/29 00:40:55;;;;;;;3.97;2.67;;;24.20;30.30;;;;;;5030610;28;20403;-63
2022/03/29 00:43:21;;;;;;;3.75;3.17;;;24.10;30.50;;;;;;5030149;28;20386;-63
2022/03/29 00:45:46;;;;;;;3.27;2.80;;;24.10;30.40;;;;;;5030840;28;20407;-64
2022/03/29 00:48:13;;;;;;;3.33;3.03;;;24.10;30.30;;;;;;5031285;28;20394;-62
2022/03/29 00:50:40;;;;;;;3.90;3.20;;;24.10;30.40;;;;;;5031433;28;20382;-66
2022/03/29 00:53:08;;;;;;;3.63;2.93;;;24.00;30.30;;;;;;5030898;28;20379;-62
2022/03/29 00:55:34;;;;;;;3.35;2.85;;;24.10;30.40;;;;;;5031061;28;20488;-62
2022/03/29 00:58:03;;;;;;;3.13;2.72;;;24.10;30.40;;;;;;5031039;28;20932;-64
2022/03/29 01:00:32;;;;;;;4.43;3.30;;;24.00;30.40;;;;;;5031089;28;20395;-62
2022/03/29 01:03:01;;;;;;;3.60;2.70;;;24.00;30.30;;;;;;5031021;28;20392;-63
2022/03/29 01:05:27;;;;;;;4.72;2.70;;;24.00;30.30;;;;;;5030877;28;20474;-61
2022/03/29 01:07:56;;;;;;;3.23;2.73;;;24.00;30.40;;;;;;5031061;28;20538;-62
2022/03/29 01:10:22;;;;;;;3.10;2.75;;;24.00;30.40;;;;;;5032716;28;20724;-61
2022/03/29 01:12:49;;;;;;;4.38;3.00;;;24.00;30.00;;;;;;5034600;28;20384;-62
2022/03/29 01:15:16;;;;;;;3.90;3.00;;;24.00;30.00;;;;;;5032832;28;20953;-62
2022/03/29 01:17:43;;;;;;;3.78;2.88;;;24.00;29.60;;;;;;5034626;28;20387;-62
2022/03/29 01:20:25;;;;;;;3.63;2.80;;;24.00;29.80;;;;;;5034522;28;20867;-62
2022/03/29 01:22:52;;;;;;;4.15;2.80;;;24.00;29.80;;;;;;5034515;28;20395;-63
2022/03/29 01:25:42;;;;;;;3.63;3.00;;;24.00;29.80;;;;;;5032719;28;20406;-65
2022/03/29 01:28:08;;;;;;;4.00;2.90;;;24.00;29.90;;;;;;5034339;28;20394;-61
2022/03/29 01:30:34;;;;;;;3.40;2.90;;;24.00;29.80;;;;;;5034295;28;20391;-61
2022/03/29 01:33:03;;;;;;;3.50;2.97;;;24.00;29.60;;;;;;5034247;28;20433;-64
2022/03/29 01:35:30;;;;;;;4.07;2.85;;;24.00;30.00;;;;;;5033940;28;20425;-64
2022/03/29 01:37:56;;;;;;;3.67;2.70;;;24.00;29.90;;;;;;5034120;28;20390;-63
2022/03/29 01:40:25;;;;;;;3.83;2.83;;;23.90;30.00;;;;;;5034160;28;20442;-63
2022/03/29 01:42:59;;;;;;;3.80;3.00;;;24.00;30.00;;;;;;5033980;28;20419;-62
2022/03/29 01:45:27;;;;;;;4.25;2.80;;;23.90;29.80;;;;;;5033418;28;20481;-63
2022/03/29 01:47:53;;;;;;;3.00;2.60;;;24.00;30.00;;;;;;5034054;28;20399;-62
2022/03/29 01:50:19;;;;;;;3.50;2.80;;;24.00;30.00;;;;;;5034017;28;20405;-62
2022/03/29 01:52:47;;;;;;;3.40;2.65;;;23.90;29.90;;;;;;5033889;28;20454;-63
2022/03/29 01:55:16;;;;;;;3.35;2.65;;;23.90;29.90;;;;;;5031874;28;20822;-63
2022/03/29 01:57:42;;;;;;;3.80;2.90;;;23.90;30.00;;;;;;5033275;28;20743;-63
2022/03/29 02:02:55;;;;;;;3.97;3.10;;;23.90;30.10;;;;;;5034027;28;20402;-64
2022/03/29 02:05:21;;;;;;;3.50;2.90;;;23.90;30.30;;;;;;5033447;28;20474;-62
2022/03/29 02:07:47;;;;;;;3.35;2.92;;;23.90;30.20;;;;;;5033541;28;20402;-64
2022/03/29 02:10:19;;;;;;;3.75;3.03;;;23.90;30.10;;;;;;5033576;28;20390;-64
2022/03/29 02:12:46;;;;;;;3.50;2.80;;;23.80;30.00;;;;;;5033483;28;20398;-62
2022/03/29 02:15:12;;;;;;;3.90;3.00;;;23.80;30.10;;;;;;5032943;28;20418;-62
2022/03/29 02:17:39;;;;;;;3.45;2.90;;;23.80;30.00;;;;;;5033546;28;20429;-64
2022/03/29 02:20:06;;;;;;;4.22;3.08;;;23.80;30.10;;;;;;5033340;28;20391;-62
2022/03/29 02:22:32;;;;;;;3.95;3.10;;;23.80;30.10;;;;;;5032656;28;20391;-62
2022/03/29 02:24:58;;;;;;;3.40;2.97;;;23.80;30.20;;;;;;5033280;28;20398;-62
2022/03/29 02:27:23;;;;;;;4.80;3.33;;;23.70;30.10;;;;;;5032800;28;20399;-61
2022/03/29 02:29:49;;;;;;;4.80;3.15;;;23.80;30.20;;;;;;5031999;28;20431;-63
2022/03/29 02:32:15;;;;;;;3.60;3.00;;;23.80;30.20;;;;;;5033291;28;20410;-63
2022/03/29 02:34:41;;;;;;;5.10;3.10;;;23.70;30.10;;;;;;5033123;28;20414;-62
2022/03/29 02:37:07;;;;;;;3.90;3.40;;;23.80;30.20;;;;;;5032848;28;20891;-62
2022/03/29 02:39:32;;;;;;;4.07;3.33;;;23.70;30.10;;;;;;5032871;28;20395;-61
2022/03/29 02:41:58;;;;;;;4.03;2.90;;;23.70;30.20;;;;;;5033004;28;20403;-63
2022/03/29 02:44:23;;;;;;;4.00;2.80;;;23.70;30.20;;;;;;5033038;28;20515;-63
2022/03/29 02:46:50;;;;;;;3.60;3.30;;;23.70;30.10;;;;;;5032675;28;20411;-62
2022/03/29 02:49:16;;;;;;;4.07;3.28;;;23.70;30.20;;;;;;5032382;28;20871;-65
2022/03/29 02:51:42;;;;;;;3.88;3.08;;;23.70;30.20;;;;;;5032850;28;20391;-62
2022/03/29 02:54:08;;;;;;;4.25;3.28;;;23.70;30.20;;;;;;5032661;28;20411;-62
2022/03/29 02:56:34;;;;;;;3.45;2.70;;;23.70;30.20;;;;;;5032521;28;20520;-64
2022/03/29 02:59:00;;;;;;;4.40;3.37;;;23.70;30.20;;;;;;5032628;28;20875;-61
2022/03/29 03:01:29;;;;;;;4.22;3.00;;;23.70;30.90;;;;;;5031937;28;20879;-62
2022/03/29 03:03:56;;;;;;;3.88;3.03;;;23.70;30.20;;;;;;5032476;28;20399;-62
2022/03/29 03:06:22;;;;;;;3.75;3.00;;;23.70;30.30;;;;;;5032608;28;20391;-62
2022/03/29 03:08:48;;;;;;;5.28;2.85;;;23.60;30.70;;;;;;5032472;28;20401;-61
2022/03/29 03:11:13;;;;;;;4.88;3.10;;;23.50;30.70;;;;;;5031880;28;21021;-62
2022/03/29 03:13:39;;;;;;;4.43;3.53;;;23.50;30.90;;;;;;5031830;28;20399;-62
2022/03/29 03:16:05;;;;;;;4.03;3.22;;;23.60;31.00;;;;;;5032135;28;21504;-63
2022/03/29 03:18:32;;;;;;;4.60;3.57;;;23.60;31.20;;;;;;5032309;28;20391;-62
2022/03/29 03:20:58;;;;;;;4.90;3.60;;;23.60;32.10;;;;;;5032230;28;20387;-62
2022/03/29 03:23:24;;;;;;;5.57;3.30;;;23.60;32.40;;;;;;5031626;28;20387;-62
2022/03/29 03:25:50;;;;;;;4.88;3.42;;;23.60;32.60;;;;;;5032009;28;20394;-66
2022/03/29 03:28:16;;;;;;;6.53;3.13;;;23.60;33.40;;;;;;5032717;28;20474;-63
2022/03/29 03:30:42;;;;;;;4.63;3.17;;;23.60;32.70;;;;;;5032204;28;20466;-63
2022/03/29 03:33:07;;;;;;;4.22;3.17;;;23.60;34.30;;;;;;5031854;28;20386;-62
2022/03/29 03:35:33;;;;;;;5.47;3.13;;;23.60;34.40;;;;;;5031446;28;20418;-63
2022/03/29 03:37:59;;;;;;;7.80;3.22;;;23.60;33.20;;;;;;5031681;28;20441;-63
2022/03/29 03:40:24;;;;;;;4.93;3.47;;;23.60;33.10;;;;;;5031782;28;20399;-65
2022/03/29 03:42:50;;;;;;;12.40;3.60;;;23.60;33.80;;;;;;5031520;28;20418;-66
2022/03/29 03:45:15;;;;;;;9.38;3.40;;;23.70;34.30;;;;;;5031283;28;20399;-68
2022/03/29 03:47:41;;;;;;;7.43;3.10;;;23.70;35.10;;;;;;5031852;28;20395;-63
2022/03/29 03:50:08;;;;;;;6.00;3.28;;;23.70;35.00;;;;;;5031544;28;20394;-62
2022/03/29 03:52:34;;;;;;;5.22;3.10;;;23.70;35.00;;;;;;5031713;28;20395;-63
2022/03/29 03:55:00;;;;;;;6.93;3.47;;;23.70;35.00;;;;;;5031658;28;20443;-64
2022/03/29 03:57:26;;;;;;;5.53;3.10;;;23.70;34.30;;;;;;5031207;28;20891;-64
2022/03/29 03:59:55;;;;;;;5.53;2.97;;;23.70;33.20;;;;;;5031536;28;20481;-63
2022/03/29 04:02:20;;;;;;;4.85;3.33;;;23.60;32.20;;;;;;5031461;28;20934;-62
2022/03/29 04:04:46;;;;;;;5.70;3.10;;;23.60;33.50;;;;;;5031458;28;20411;-67
2022/03/29 04:07:12;;;;;;;4.07;3.00;;;23.60;33.80;;;;;;5029977;28;20416;-63
2022/03/29 04:09:39;;;;;;;5.05;3.15;;;23.60;33.30;;;;;;5031260;28;20410;-65
2022/03/29 04:12:06;;;;;;;5.65;3.10;;;23.60;32.50;;;;;;5031345;28;20470;-67
2022/03/29 04:14:31;;;;;;;7.15;3.35;;;23.60;32.80;;;;;;5031420;28;20497;-63
2022/03/29 04:16:57;;;;;;;4.47;3.10;;;23.60;32.70;;;;;;5031373;28;20438;-64
2022/03/29 04:19:23;;;;;;;6.35;3.10;;;23.60;32.50;;;;;;5031082;28;20387;-65
2022/03/29 04:21:49;;;;;;;6.77;3.30;;;23.60;32.50;;;;;;5030133;28;20490;-68
2022/03/29 04:24:14;;;;;;;5.72;3.25;;;23.60;32.10;;;;;;5031398;28;20489;-64
2022/03/29 04:26:40;;;;;;;6.10;3.03;;;23.50;32.20;;;;;;5031581;28;20395;-67
2022/03/29 04:29:06;;;;;;;5.47;3.08;;;23.60;32.10;;;;;;5030804;28;20403;-67
2022/03/29 04:31:32;;;;;;;6.30;3.23;;;23.50;31.90;;;;;;5031681;28;20449;-64
2022/03/29 04:34:02;;;;;;;8.75;3.10;;;23.50;32.30;;;;;;5038904;28;20390;-63
2022/03/29 04:36:29;;;;;;;5.75;3.28;;;23.50;32.30;;;;;;5038959;28;20494;-65
2022/03/29 04:38:57;;;;;;;5.40;3.10;;;23.50;32.60;;;;;;5046909;28;20404;-63
2022/03/29 04:41:26;;;;;;;6.43;3.00;;;23.50;32.40;;;;;;5030873;28;20398;-63
2022/03/29 04:43:51;;;;;;;4.10;2.97;;;23.50;32.10;;;;;;5031569;28;20391;-63
2022/03/29 04:46:17;;;;;;;5.97;3.00;;;23.50;31.80;;;;;;5034419;28;20415;-63
2022/03/29 04:48:44;;;;;;;5.87;3.07;;;23.50;31.90;;;;;;5035083;28;20465;-67
2022/03/29 04:51:10;;;;;;;4.43;3.15;;;23.50;31.80;;;;;;5035112;28;20433;-62
2022/03/29 04:53:36;;;;;;;5.18;3.22;;;23.50;31.80;;;;;;5034894;28;20775;-65
2022/03/29 04:56:01;;;;;;;5.50;2.90;;;23.40;31.70;;;;;;5034922;28;20476;-63
2022/03/29 04:58:27;;;;;;;6.10;2.90;;;23.40;31.60;;;;;;5034746;28;20391;-69
2022/03/29 05:00:53;;;;;;;6.22;2.92;;;23.40;31.30;;;;;;5034796;28;20395;-63
2022/03/29 05:03:18;;;;;;;5.00;2.85;;;23.40;31.00;;;;;;5034613;28;20859;-69
2022/03/29 05:05:44;;;;;;;4.33;2.90;;;23.40;31.00;;;;;;5033219;28;20391;-68
2022/03/29 05:08:10;;;;;;;5.10;3.07;;;23.40;31.00;;;;;;5033460;28;20387;-65
2022/03/29 05:10:35;;;;;;;4.38;3.10;;;23.40;31.40;;;;;;5033156;28;20399;-63
2022/03/29 05:13:01;;;;;;;5.40;3.43;;;23.40;31.10;;;;;;5033521;28;20430;-63
2022/03/29 05:15:27;;;;;;;6.47;3.42;;;23.40;31.50;;;;;;5033130;28;20779;-68
2022/03/29 05:17:53;;;;;;;4.78;3.03;;;23.50;32.80;;;;;;5033570;28;20394;-65
2022/03/29 05:20:19;;;;;;;4.68;2.90;;;23.50;32.60;;;;;;5033880;28;20404;-66
2022/03/29 05:22:52;;;;;;;8.45;3.15;;;23.60;33.60;;;;;;5033827;28;20387;-65
2022/03/29 05:25:21;;;;;;;7.43;3.25;;;23.60;33.70;;;;;;5033484;28;20402;-68
2022/03/29 05:27:47;;;;;;;4.95;3.25;;;23.60;33.70;;;;;;5032205;28;20406;-62
2022/03/29 05:30:14;;;;;;;5.05;3.00;;;23.60;33.80;;;;;;5033660;28;20392;-64
2022/03/29 05:32:40;;;;;;;6.00;3.13;;;23.60;33.80;;;;;;5030835;28;20413;-68
2022/03/29 05:35:08;;;;;;;5.82;3.20;;;23.60;33.80;;;;;;5048664;28;20573;-64
2022/03/29 05:37:34;;;;;;;5.93;3.45;;;23.60;33.50;;;;;;5033811;28;20403;-67
2022/03/29 05:40:00;;;;;;;5.57;3.15;;;23.60;33.70;;;;;;5034360;28;20499;-68
2022/03/29 05:42:25;;;;;;;4.43;3.10;;;23.60;33.40;;;;;;5032804;28;20822;-63
2022/03/29 05:44:51;;;;;;;4.78;3.40;;;23.60;33.30;;;;;;5032908;28;20387;-67
2022/03/29 05:50:01;;;;;;;5.50;3.40;;;23.50;32.60;;;;;;5033356;28;20383;-68
2022/03/29 05:52:28;;;;;;;4.85;3.28;;;23.50;33.20;;;;;;5033523;28;20755;-66
2022/03/29 05:54:54;;;;;;;5.50;3.40;;;23.60;33.10;;;;;;5033302;28;21041;-69
2022/03/29 05:57:20;;;;;;;5.15;3.35;;;23.60;33.00;;;;;;5031735;28;20419;-69
2022/03/29 05:59:46;;;;;;;5.72;3.42;;;23.60;33.10;;;;;;5033364;28;20391;-68
2022/03/29 06:02:12;;;;;;;4.60;3.55;;;23.50;33.00;;;;;;5033131;28;20383;-63
2022/03/29 06:04:39;;;;;;;5.53;3.38;;;23.50;32.00;;;;;;5028647;28;20450;-63
2022/03/29 06:07:05;;;;;;;4.40;3.10;;;23.50;31.80;;;;;;5032233;28;20395;-63
2022/03/29 06:09:32;;;;;;;5.65;3.22;;;23.50;32.50;;;;;;5032967;28;20453;-69
2022/03/29 06:11:58;;;;;;;5.07;3.33;;;23.50;32.60;;;;;;5032165;28;20457;-65
2022/03/29 06:14:24;;;;;;;7.13;3.30;;;23.50;32.50;;;;;;5033273;28;20839;-68
2022/03/29 06:16:49;;;;;;;5.80;3.38;;;23.50;32.60;;;;;;5033690;28;20379;-68
2022/03/29 06:19:15;;;;;;;4.20;3.10;;;23.50;32.30;;;;;;5033846;28;20407;-66
2022/03/29 06:21:41;;;;;;;4.30;3.45;;;23.50;32.10;;;;;;5033029;28;20406;-66
2022/03/29 06:24:09;;;;;;;4.78;3.20;;;23.50;32.00;;;;;;5033014;28;20380;-63
2022/03/29 06:26:44;;;;;;;4.15;3.08;;;23.50;31.70;;;;;;5032992;28;20415;-67
2022/03/29 06:29:10;;;;;;;4.15;3.20;;;23.50;31.90;;;;;;5032989;28;20430;-69
2022/03/29 06:31:37;;;;;;;4.72;3.40;;;23.50;31.80;;;;;;5031498;28;20460;-64
2022/03/29 06:34:03;;;;;;;6.20;3.30;;;23.50;31.80;;;;;;5032555;28;21050;-64
2022/03/29 06:36:29;;;;;;;4.93;3.05;;;23.50;31.80;;;;;;5033109;28;20403;-63
2022/03/29 06:38:55;;;;;;;5.22;3.00;;;23.50;31.90;;;;;;5032894;28;20398;-64
2022/03/29 06:41:21;;;;;;;4.30;3.30;;;23.50;31.70;;;;;;5032547;28;20494;-64
2022/03/29 06:43:47;;;;;;;5.10;3.40;;;23.50;31.80;;;;;;5032577;28;20383;-69
2022/03/29 06:46:13;;;;;;;4.05;3.25;;;23.50;31.60;;;;;;5031962;28;20882;-69
2022/03/29 06:48:41;;;;;;;4.20;3.10;;;23.50;31.60;;;;;;5033244;28;20391;-66
2022/03/29 06:51:14;;;;;;;4.20;3.05;;;23.40;31.60;;;;;;5033284;28;20456;-63
2022/03/29 06:53:41;;;;;;;3.80;3.08;;;23.50;31.80;;;;;;5034128;28;20756;-65
2022/03/29 06:56:08;;;;;;;3.67;3.15;;;23.40;31.60;;;;;;5034202;28;20411;-63
2022/03/29 06:58:34;;;;;;;5.28;3.20;;;23.40;31.60;;;;;;5034337;28;20391;-65
2022/03/29 07:01:00;;;;;;;3.78;2.80;;;23.40;31.50;;;;;;5033921;28;20871;-65
2022/03/29 07:03:27;;;;;;;3.88;3.15;;;23.40;31.60;;;;;;5032238;28;20388;-64
2022/03/29 07:05:53;;;;;;;4.20;3.00;;;23.40;31.70;;;;;;5032143;28;20390;-66
2022/03/29 07:08:20;;;;;;;4.13;3.33;;;23.50;31.80;;;;;;5031518;28;20402;-69
2022/03/29 07:13:31;;;;;;;4.07;2.95;;;23.60;32.60;;;;;;5031774;28;20398;-64
2022/03/29 07:15:57;;;;;;;4.63;3.07;;;23.70;32.70;;;;;;5031896;28;20907;-63
2022/03/29 07:18:23;;;;;;;4.88;3.20;;;23.70;32.80;;;;;;5032145;28;20391;-62
2022/03/29 07:20:48;;;;;;;4.43;3.03;;;23.60;32.70;;;;;;5031531;28;20394;-67
2022/03/29 07:23:14;;;;;;;5.38;3.25;;;23.60;32.80;;;;;;5031961;28;20422;-63
2022/03/29 07:25:40;;;;;;;6.07;3.47;;;23.60;32.60;;;;;;5031594;28;20395;-61
2022/03/29 07:28:11;;;;;;;5.07;3.15;;;23.60;32.80;;;;;;5031661;28;20795;-63
2022/03/29 07:30:40;;;;;;;4.07;3.33;;;23.60;32.80;;;;;;5031936;28;20466;-64
2022/03/29 07:33:07;;;;;;;5.05;3.10;;;23.60;32.10;;;;;;5031638;28;20387;-64
2022/03/29 07:35:33;;;;;;;4.60;3.10;;;23.60;32.40;;;;;;5031231;28;20866;-62
2022/03/29 07:38:00;;;;;;;4.72;3.05;;;23.60;32.30;;;;;;5031451;28;20786;-64
2022/03/29 07:40:30;;;;;;;4.60;3.13;;;23.60;32.30;;;;;;5031736;28;20449;-64
2022/03/29 07:43:00;;;;;;;4.00;3.00;;;23.60;31.90;;;;;;5031747;28;20394;-63
2022/03/29 07:45:27;;;;;;;4.38;3.00;;;23.60;32.00;;;;;;5031125;28;20416;-68
2022/03/29 07:47:56;;;;;;;4.07;3.00;;;23.60;32.00;;;;;;5031473;28;20387;-63
2022/03/29 07:50:23;;;;;;;3.70;2.90;;;23.60;31.90;;;;;;5031700;28;20391;-63
2022/03/29 07:52:50;;;;;;;5.07;2.88;;;23.60;31.70;;;;;;5031442;28;20386;-63
2022/03/29 07:55:16;;;;;;;4.90;2.85;;;23.60;32.60;;;;;;5031082;28;20930;-64
2022/03/29 07:57:43;;;;;;;4.47;2.88;;;23.60;32.10;;;;;;5030820;28;20387;-66
2022/03/29 08:02:55;;;;;;;3.90;3.08;;;23.60;32.00;;;;;;5031605;28;20413;-63
2022/03/29 08:05:22;;;;;;;4.30;2.72;;;23.60;31.60;;;;;;5031161;28;20399;-63
2022/03/29 08:07:48;;;;;;;4.07;2.90;;;23.70;32.00;;;;;;5031045;28;20450;-63
2022/03/29 08:10:13;;;;;;;4.00;3.00;;;23.60;31.90;;;;;;5031097;28;20399;-63
2022/03/29 08:12:40;;;;;;;4.10;2.70;;;23.60;31.70;;;;;;5031457;28;20391;-63
2022/03/29 08:15:08;;;;;;;4.20;3.03;;;23.60;31.30;;;;;;5030996;28;20922;-67
2022/03/29 08:17:34;;;;;;;4.00;2.75;;;23.70;31.20;;;;;;5030260;28;20390;-67
2022/03/29 08:20:01;;;;;;;3.97;3.10;;;23.60;31.30;;;;;;5030064;28;21005;-64
2022/03/29 08:22:27;;;;;;;4.35;2.97;;;23.70;30.80;;;;;;5030903;28;20383;-67
2022/03/29 08:24:53;;;;;;;3.30;2.85;;;23.70;31.10;;;;;;5029832;28;20399;-63
2022/03/29 08:27:18;;;;;;;3.93;2.83;;;23.60;31.80;;;;;;5030669;28;20889;-64
2022/03/29 08:29:47;;;;;;;4.07;3.13;;;23.70;31.50;;;;;;5031479;28;20445;-63
2022/03/29 08:32:13;;;;;;;4.00;3.10;;;23.70;31.60;;;;;;5031315;28;20411;-63
2022/03/29 08:34:39;;;;;;;4.03;2.83;;;23.70;31.50;;;;;;5030767;28;20414;-63
2022/03/29 08:37:04;;;;;;;5.03;2.90;;;23.70;31.40;;;;;;5030381;28;20478;-64
2022/03/29 08:39:30;;;;;;;5.40;2.90;;;23.70;32.20;;;;;;5029825;28;20478;-64
2022/03/29 08:42:03;;;;;;;5.07;3.10;;;23.80;32.50;;;;;;5029921;28;20446;-69
2022/03/29 08:44:30;;;;;;;3.88;2.75;;;23.80;31.40;;;;;;5029238;28;20823;-65
2022/03/29 08:46:55;;;;;;;4.85;3.13;;;23.90;31.40;;;;;;5029722;28;20415;-63
2022/03/29 08:49:23;;;;;;;4.77;3.07;;;23.90;31.50;;;;;;5030029;28;20448;-64
2022/03/29 08:51:49;;;;;;;3.50;2.85;;;23.90;31.90;;;;;;5030295;28;20398;-63
2022/03/29 08:54:15;;;;;;;5.00;2.90;;;23.90;31.80;;;;;;5031220;28;20407;-65
2022/03/29 08:56:41;;;;;;;3.67;3.05;;;23.90;31.90;;;;;;5030984;28;20403;-63
2022/03/29 08:59:07;;;;;;;4.65;2.97;;;24.00;32.20;;;;;;5031036;28;20902;-68
2022/03/29 09:01:33;;;;;;;5.00;2.88;;;24.00;32.20;;;;;;5027911;28;20435;-63
2022/03/29 09:04:06;;;;;;;3.60;3.07;;;24.00;32.40;;;;;;5029514;28;20486;-69
2022/03/29 09:06:33;;;;;;;4.65;2.75;;;24.00;32.40;;;;;;5023317;28;20403;-66
2022/03/29 09:08:58;;;;;;;4.40;2.90;;;24.00;32.30;;;;;;5030310;28;20470;-64
2022/03/29 09:11:24;;;;;;;3.87;2.90;;;24.00;32.00;;;;;;5030155;28;20406;-63
2022/03/29 09:14:03;;;;;;;4.50;2.60;;;24.00;32.50;;;;;;5030415;28;20391;-64
2022/03/29 09:16:31;;;;;;;5.32;3.15;;;24.00;32.50;;;;;;5028956;28;20408;-64
2022/03/29 09:18:58;;;;;;;4.25;3.00;;;24.00;32.70;;;;;;5030897;28;20383;-67
2022/03/29 09:21:24;;;;;;;4.20;3.03;;;24.00;32.70;;;;;;5030781;28;20403;-69
2022/03/29 09:24:11;;;;;;;4.40;2.80;;;24.10;32.70;;;;;;5030188;28;20879;-68
2022/03/29 09:26:38;;;;;;;5.43;3.20;;;24.10;32.70;;;;;;5030488;28;20403;-65
2022/03/29 09:29:24;;;;;;;5.43;2.88;;;24.10;32.70;;;;;;5030220;28;20460;-63
2022/03/29 09:32:07;;;;;;;3.92;2.63;;;24.20;32.50;;;;;;5031906;28;20414;-63
2022/03/29 09:34:33;;;;;;;4.03;3.00;;;24.20;32.50;;;;;;5030747;28;20989;-68
2022/03/29 09:37:01;;;;;;;4.47;2.85;;;24.20;32.40;;;;;;5032180;28;20453;-69
2022/03/29 09:39:53;;;;;;;4.85;3.00;;;24.20;32.40;;;;;;5015313;28;20438;-63
2022/03/29 09:42:19;;;;;;;3.80;2.72;;;24.20;32.40;;;;;;5031652;28;20405;-63
2022/03/29 09:44:49;;;;;;;4.70;3.10;;;24.20;32.40;;;;;;5032199;28;20414;-65
2022/03/29 09:47:20;;;;;;;4.70;2.80;;;24.20;32.00;;;;;;5029939;28;20403;-67
2022/03/29 09:50:01;;;;;;;4.60;2.70;;;24.20;32.20;;;;;;5033166;28;20387;-67
2022/03/29 09:52:28;;;;;;;4.93;2.97;;;24.20;31.50;;;;;;5034296;28;20438;-64
2022/03/29 09:55:05;;;;;;;3.53;3.00;;;24.20;31.40;;;;;;5034193;28;20423;-63
2022/03/29 09:57:38;;;;;;;3.78;2.92;;;24.20;31.40;;;;;;5033496;28;20470;-64
2022/03/29 10:00:07;;;;;;;4.73;3.00;;;24.10;31.10;;;;;;5034687;28;20744;-63
2022/03/29 10:02:38;;;;;;;3.83;2.80;;;24.20;31.20;;;;;;5031445;28;20478;-66
2022/03/29 10:05:04;;;;;;;3.47;2.90;;;24.20;31.00;;;;;;5033682;28;20391;-63
2022/03/29 10:07:49;;;;;;;3.88;2.90;;;24.20;30.90;;;;;;5032773;28;20387;-66
2022/03/29 10:10:15;;;;;;;3.33;2.90;;;24.20;31.00;;;;;;5034546;28;20927;-69
2022/03/29 10:12:41;;;;;;;4.13;2.78;;;24.20;31.00;;;;;;5015578;28;20464;-70
2022/03/29 10:15:08;;;;;;;3.83;3.00;;;24.20;30.90;;;;;;5042458;28;20896;-65
2022/03/29 10:17:34;;;;;;;3.75;2.80;;;24.20;30.90;;;;;;5039275;28;20384;-65
2022/03/29 10:20:01;;;;;;;3.53;2.90;;;24.20;30.80;;;;;;5049408;28;20385;-64
2022/03/29 10:22:28;;;;;;;3.42;2.90;;;24.20;30.80;;;;;;5036975;28;20839;-68
2022/03/29 10:24:55;;;;;;;4.35;3.20;;;24.20;30.80;;;;;;5044971;28;20767;-68
2022/03/29 10:27:22;;;;;;;4.00;3.20;;;24.20;30.80;;;;;;5044375;28;20412;-64
2022/03/29 10:29:48;;;;;;;3.65;3.00;;;24.20;30.80;;;;;;5037278;28;20781;-67
2022/03/29 10:32:27;;;;;;;3.78;3.00;;;24.20;30.70;;;;;;5049331;28;20389;-63
2022/03/29 10:35:09;;;;;;;3.83;3.20;;;24.20;30.60;;;;;;5040503;28;20491;-64
2022/03/29 10:37:55;;;;;;;3.70;2.90;;;24.20;30.70;;;;;;5038668;28;20440;-64
2022/03/29 10:40:41;;;;;;;4.00;3.05;;;24.20;30.70;;;;;;5049106;28;20379;-64
2022/03/29 10:43:50;;;;;;;4.05;3.00;;;24.20;30.60;;;;;;5041744;28;20398;-69
2022/03/29 10:46:41;;;;;;;3.80;2.70;;;24.20;30.60;;;;;;5030867;28;20473;-64
2022/03/29 10:49:22;;;;;;;4.30;3.00;;;24.30;30.60;;;;;;5041924;28;20431;-66
2022/03/29 10:51:53;;;;;;;4.20;3.05;;;24.20;30.50;;;;;;5033717;28;20387;-67
2022/03/29 10:54:37;;;;;;;3.83;2.80;;;24.20;30.40;;;;;;5035426;28;20409;-63
2022/03/29 10:57:16;;;;;;;3.90;2.80;;;24.30;30.20;;;;;;5042814;28;20449;-65
2022/03/29 10:59:50;;;;;;;4.95;3.03;;;24.30;30.30;;;;;;5042786;28;20473;-64
2022/03/29 11:02:20;;;;;;;7.37;3.10;;;24.20;30.50;;;;;;5048550;28;20402;-63
2022/03/29 11:05:05;;;;;;;5.30;3.28;;;24.20;31.10;;;;;;5038917;28;20397;-64
2022/03/29 11:07:55;;;;;;;4.22;2.83;;;24.30;30.80;;;;;;5038683;28;20383;-64
2022/03/29 11:10:23;;;;;;;5.28;2.80;;;24.30;30.70;;;;;;5036824;28;20405;-66
2022/03/29 11:12:53;;;;;;;4.22;3.00;;;24.30;30.60;;;;;;5039144;28;20397;-65
2022/03/29 11:15:25;;;;;;;4.03;3.00;;;24.30;30.50;;;;;;5040279;28;20423;-68
2022/03/29 11:18:01;;;;;;;4.45;3.05;;;24.30;30.40;;;;;;5045763;28;20432;-66
2022/03/29 11:20:42;;;;;;;4.15;3.15;;;24.30;30.30;;;;;;5020252;28;20394;-66
2022/03/29 11:23:09;;;;;;;5.68;3.08;;;24.30;30.30;;;;;;5041895;28;20887;-64
2022/03/29 11:25:41;;;;;;;4.57;3.17;;;24.40;30.10;;;;;;5044943;28;20401;-68
2022/03/29 11:28:09;;;;;;;10.05;3.33;;;24.40;30.10;;;;;;5030053;28;20876;-65
2022/03/29 11:30:35;;;;;;;5.53;2.92;;;24.30;30.00;;;;;;5031153;28;20827;-63
2022/03/29 11:33:06;;;;;;;5.22;3.25;;;24.30;30.30;;;;;;5030961;28;20736;-64
2022/03/29 11:35:33;;;;;;;4.32;3.40;;;24.30;30.20;;;;;;5028257;28;20415;-63
2022/03/29 11:38:10;;;;;;;5.32;3.10;;;24.30;30.70;;;;;;5029895;28;20395;-65
2022/03/29 11:40:37;;;;;;;4.50;3.28;;;24.30;30.60;;;;;;5028348;28;20398;-63
2022/03/29 11:43:06;;;;;;;4.70;3.30;;;24.30;30.50;;;;;;5029340;28;20906;-65
2022/03/29 11:45:40;;;;;;;4.33;3.03;;;24.30;30.90;;;;;;5029069;28;21102;-64
2022/03/29 11:48:12;;;;;;;4.80;3.35;;;24.30;30.50;;;;;;5030395;28;20402;-69
2022/03/29 11:50:43;;;;;;;4.63;3.30;;;24.40;30.30;;;;;;5027095;28;20774;-69
2022/03/29 11:53:27;;;;;;;4.30;3.28;;;24.30;30.20;;;;;;5028921;28;20403;-67
2022/03/29 11:55:59;;;;;;;3.65;3.05;;;24.30;30.20;;;;;;5027966;28;20513;-63
2022/03/29 11:58:32;;;;;;;4.13;3.28;;;24.40;30.30;;;;;;5029851;28;20394;-63
2022/03/29 12:01:09;;;;;;;4.63;3.53;;;24.40;30.30;;;;;;5028714;28;20872;-65
2022/03/29 12:03:39;;;;;;;4.28;3.10;;;24.40;30.60;;;;;;5029107;28;20469;-68
2022/03/29 12:06:09;;;;;;;3.60;3.00;;;24.40;30.30;;;;;;5028977;28;20898;-66
2022/03/29 12:09:02;;;;;;;4.53;3.40;;;24.40;30.20;;;;;;5029327;28;20403;-68
2022/03/29 12:11:30;;;;;;;4.03;3.20;;;24.40;30.40;;;;;;5027688;28;20425;-68
2022/03/29 12:14:08;;;;;;;4.13;3.00;;;24.40;30.50;;;;;;5028903;28;20497;-63
2022/03/29 12:16:45;;;;;;;4.93;3.40;;;24.40;30.50;;;;;;5027572;28;20446;-67
2022/03/29 12:19:19;;;;;;;4.05;2.83;;;24.40;30.30;;;;;;5027844;28;20954;-63
2022/03/29 12:21:54;;;;;;;3.75;2.90;;;24.40;30.30;;;;;;5028724;28;20409;-65
2022/03/29 12:24:20;;;;;;;3.45;2.83;;;24.40;30.30;;;;;;5030927;28;20400;-63
2022/03/29 12:27:14;;;;;;;4.05;3.13;;;24.40;30.70;;;;;;5028680;28;20403;-67
2022/03/29 12:29:50;;;;;;;5.40;2.83;;;24.40;30.30;;;;;;5027058;28;20406;-67
2022/03/29 12:32:16;;;;;;;3.65;3.05;;;24.30;30.20;;;;;;5030118;28;20375;-67
2022/03/29 12:34:43;;;;;;;3.63;2.90;;;24.30;30.80;;;;;;5030227;28;20407;-68
2022/03/29 12:37:16;;;;;;;4.15;3.25;;;24.40;30.10;;;;;;5027819;28;20929;-67
2022/03/29 12:39:44;;;;;;;3.93;3.20;;;24.40;30.50;;;;;;5030100;28;20395;-68
2022/03/29 12:42:12;;;;;;;4.20;3.15;;;24.30;30.00;;;;;;5030960;28;20402;-65
2022/03/29 12:44:46;;;;;;;3.90;3.20;;;24.40;30.00;;;;;;5030465;28;20429;-65
2022/03/29 12:47:13;;;;;;;4.47;3.10;;;24.40;30.00;;;;;;5027901;28;20903;-67
2022/03/29 12:49:41;;;;;;;4.25;3.25;;;24.40;30.00;;;;;;5029932;28;20395;-67
2022/03/29 12:52:09;;;;;;;4.30;2.92;;;24.40;29.90;;;;;;5030619;28;20411;-64
2022/03/29 12:54:51;;;;;;;4.15;3.20;;;24.30;29.80;;;;;;5030108;28;20411;-65
2022/03/29 12:57:20;;;;;;;3.92;3.00;;;24.30;29.80;;;;;;5027216;28;20411;-63
2022/03/29 12:59:48;;;;;;;4.25;3.42;;;24.30;29.90;;;;;;5029655;28;20383;-67
2022/03/29 13:02:17;;;;;;;4.27;3.03;;;24.30;29.90;;;;;;5013440;28;20433;-65
2022/03/29 13:04:44;;;;;;;3.90;2.90;;;24.30;29.80;;;;;;5029990;28;20398;-64
2022/03/29 13:07:29;;;;;;;4.15;3.33;;;24.30;29.80;;;;;;5032743;28;20399;-63